GJS4549 KEWR-KORF
Flight info
| Callsign | GJS4549 |
|---|---|
| Flight time | 1h 2m |
| Altitude | 32000 |
| Route | ELVAE NECCK WHITE Q409 TRPOD JAMIE CCV |
| Aircraft | CRJ7/M-SDFGIRWY/S |
Departure
| Time | 2026-04-25 20:01 |
|---|---|
| Airport | Newark Liberty International Airport (KEWR) |
Arrival
| Time | 2026-04-25 21:03 |
|---|---|
| Airport | Norfolk International Airport (KORF) |
| Time | Latitude | Longitude | Altitude | Speed | Heading |
|---|---|---|---|---|---|
| 2026-04-25 19:41 | 40.69738 | -74.17442 | 20 ft | 0 kts | 310° |
| 2026-04-25 19:49 | 40.69727 | -74.17426 | 19 ft | 2 kts | 310° |
| 2026-04-25 19:49 | 40.69720 | -74.17415 | 19 ft | 2 kts | 313° |
| 2026-04-25 19:49 | 40.69702 | -74.17402 | 22 ft | 2 kts | 22° |
| 2026-04-25 19:49 | 40.69698 | -74.17405 | 21 ft | 0 kts | 37° |
| 2026-04-25 19:50 | 40.69699 | -74.17404 | 21 ft | 1 kts | 37° |
| 2026-04-25 19:50 | 40.69706 | -74.17397 | 19 ft | 2 kts | 37° |
| 2026-04-25 19:51 | 40.69712 | -74.17391 | 22 ft | 0 kts | 37° |
| 2026-04-25 19:51 | 40.69715 | -74.17388 | 21 ft | 2 kts | 39° |
| 2026-04-25 19:52 | 40.69731 | -74.17366 | 9 ft | 5 kts | 40° |
| 2026-04-25 19:52 | 40.69767 | -74.17329 | 19 ft | 8 kts | 41° |
| 2026-04-25 19:52 | 40.69814 | -74.17267 | 18 ft | 11 kts | 44° |
| 2026-04-25 19:52 | 40.69840 | -74.17188 | 18 ft | 8 kts | 124° |
| 2026-04-25 19:53 | 40.69790 | -74.17137 | 20 ft | 10 kts | 142° |
| 2026-04-25 19:53 | 40.69709 | -74.17068 | 18 ft | 17 kts | 150° |
| 2026-04-25 19:53 | 40.69602 | -74.17009 | 19 ft | 20 kts | 164° |
| 2026-04-25 19:53 | 40.69454 | -74.16975 | 18 ft | 24 kts | 176° |
| 2026-04-25 19:54 | 40.69307 | -74.16993 | 18 ft | 17 kts | 195° |
| 2026-04-25 19:54 | 40.69187 | -74.17058 | 18 ft | 19 kts | 206° |
| 2026-04-25 19:54 | 40.69052 | -74.17144 | 17 ft | 24 kts | 205° |
| 2026-04-25 19:54 | 40.68948 | -74.17209 | 18 ft | 22 kts | 206° |
| 2026-04-25 19:55 | 40.68748 | -74.17337 | 19 ft | 22 kts | 206° |
| 2026-04-25 19:55 | 40.68599 | -74.17432 | 19 ft | 22 kts | 205° |
| 2026-04-25 19:55 | 40.68461 | -74.17520 | 19 ft | 22 kts | 206° |
| 2026-04-25 19:55 | 40.68315 | -74.17613 | 18 ft | 21 kts | 205° |
| 2026-04-25 19:56 | 40.68186 | -74.17693 | 18 ft | 20 kts | 205° |
| 2026-04-25 19:56 | 40.68045 | -74.17783 | 19 ft | 21 kts | 206° |
| 2026-04-25 19:56 | 40.67905 | -74.17873 | 19 ft | 20 kts | 206° |
| 2026-04-25 19:56 | 40.67794 | -74.17944 | 18 ft | 17 kts | 205° |
| 2026-04-25 19:57 | 40.67723 | -74.17987 | 18 ft | 7 kts | 184° |
| 2026-04-25 19:57 | 40.67710 | -74.17984 | 21 ft | 0 kts | 157° |
| 2026-04-25 19:57 | 40.67708 | -74.17982 | 20 ft | 1 kts | 147° |
| 2026-04-25 19:57 | 40.67701 | -74.17974 | 19 ft | 0 kts | 125° |
| 2026-04-25 19:59 | 40.67690 | -74.17952 | 18 ft | 6 kts | 122° |
| 2026-04-25 20:00 | 40.67672 | -74.17890 | 18 ft | 7 kts | 88° |
| 2026-04-25 20:00 | 40.67694 | -74.17848 | 19 ft | 11 kts | 35° |
| 2026-04-25 20:00 | 40.67957 | -74.17675 | 16 ft | 66 kts | 26° |
| 2026-04-25 20:00 | 40.68526 | -74.17318 | 20 ft | 112 kts | 25° |
| 2026-04-25 20:01 | 40.70291 | -74.16223 | 363 ft | 156 kts | 27° |
| 2026-04-25 20:01 | 40.71320 | -74.15673 | 899 ft | 158 kts | 26° |
| 2026-04-25 20:01 | 40.72357 | -74.15166 | 1433 ft | 163 kts | 26° |
| 2026-04-25 20:02 | 40.73482 | -74.14662 | 1757 ft | 180 kts | 18° |
| 2026-04-25 20:02 | 40.74761 | -74.14994 | 2052 ft | 203 kts | 327° |
| 2026-04-25 20:02 | 40.75578 | -74.16522 | 2436 ft | 210 kts | 281° |
| 2026-04-25 20:02 | 40.75478 | -74.18403 | 2890 ft | 207 kts | 250° |
| 2026-04-25 20:03 | 40.75100 | -74.20226 | 3338 ft | 213 kts | 249° |
| 2026-04-25 20:03 | 40.74629 | -74.22209 | 3620 ft | 238 kts | 247° |
| 2026-04-25 20:03 | 40.74078 | -74.24355 | 4059 ft | 255 kts | 247° |
| 2026-04-25 20:03 | 40.73481 | -74.26561 | 4865 ft | 254 kts | 247° |
| 2026-04-25 20:04 | 40.72875 | -74.28713 | 5807 ft | 248 kts | 247° |
| 2026-04-25 20:04 | 40.72242 | -74.30820 | 6690 ft | 246 kts | 247° |
| 2026-04-25 20:04 | 40.71579 | -74.32908 | 7442 ft | 248 kts | 246° |
| 2026-04-25 20:04 | 40.70683 | -74.34861 | 8100 ft | 255 kts | 225° |
| 2026-04-25 20:05 | 40.69344 | -74.36428 | 8783 ft | 256 kts | 236° |
| 2026-04-25 20:05 | 40.68742 | -74.38596 | 9632 ft | 254 kts | 258° |
| 2026-04-25 20:05 | 40.67965 | -74.40685 | 10382 ft | 264 kts | 227° |
| 2026-04-25 20:05 | 40.66286 | -74.41776 | 11082 ft | 283 kts | 193° |
| 2026-04-25 20:06 | 40.64294 | -74.41430 | 11818 ft | 303 kts | 162° |
| 2026-04-25 20:06 | 40.62611 | -74.39740 | 12529 ft | 320 kts | 131° |
| 2026-04-25 20:06 | 40.61566 | -74.37102 | 13280 ft | 329 kts | 114° |
| 2026-04-25 20:06 | 40.60751 | -74.34266 | 14021 ft | 333 kts | 112° |
| 2026-04-25 20:07 | 40.59875 | -74.31427 | 14619 ft | 335 kts | 124° |
| 2026-04-25 20:07 | 40.58304 | -74.29233 | 15219 ft | 328 kts | 151° |
| 2026-04-25 20:07 | 40.56302 | -74.27840 | 15852 ft | 326 kts | 161° |
| 2026-04-25 20:07 | 40.54176 | -74.26832 | 16437 ft | 324 kts | 173° |
| 2026-04-25 20:08 | 40.51952 | -74.26651 | 17028 ft | 318 kts | 188° |
| 2026-04-25 20:08 | 40.49718 | -74.26264 | 17581 ft | 336 kts | 163° |
| 2026-04-25 20:08 | 40.47604 | -74.24868 | 18177 ft | 343 kts | 156° |
| 2026-04-25 20:08 | 40.45485 | -74.23366 | 18700 ft | 348 kts | 157° |
| 2026-04-25 20:09 | 40.43333 | -74.21977 | 19200 ft | 350 kts | 160° |
| 2026-04-25 20:09 | 40.41081 | -74.20751 | 19711 ft | 352 kts | 164° |
| 2026-04-25 20:09 | 40.38777 | -74.19628 | 20215 ft | 355 kts | 165° |
| 2026-04-25 20:09 | 40.36439 | -74.18525 | 20710 ft | 358 kts | 165° |
| 2026-04-25 20:10 | 40.34087 | -74.17389 | 21185 ft | 362 kts | 165° |
| 2026-04-25 20:10 | 40.31694 | -74.16344 | 21628 ft | 361 kts | 175° |
| 2026-04-25 20:10 | 40.29236 | -74.16348 | 22090 ft | 351 kts | 194° |
| 2026-04-25 20:10 | 40.26847 | -74.17001 | 22555 ft | 351 kts | 200° |
| 2026-04-25 20:11 | 40.24482 | -74.17819 | 23023 ft | 353 kts | 201° |
| 2026-04-25 20:11 | 40.22093 | -74.18641 | 23491 ft | 356 kts | 200° |
| 2026-04-25 20:11 | 40.19679 | -74.19435 | 23914 ft | 359 kts | 200° |
| 2026-04-25 20:11 | 40.17241 | -74.20187 | 24348 ft | 361 kts | 199° |
| 2026-04-25 20:12 | 40.14787 | -74.20908 | 24766 ft | 362 kts | 199° |
| 2026-04-25 20:12 | 40.12326 | -74.21610 | 25181 ft | 363 kts | 199° |
| 2026-04-25 20:12 | 40.09857 | -74.22334 | 25584 ft | 363 kts | 199° |
| 2026-04-25 20:12 | 40.09060 | -74.22572 | 25715 ft | 363 kts | 199° |
| 2026-04-25 20:13 | 40.04917 | -74.23806 | 26375 ft | 365 kts | 200° |
| 2026-04-25 20:13 | 40.02441 | -74.24560 | 26742 ft | 364 kts | 203° |
| 2026-04-25 20:13 | 40.00179 | -74.25837 | 27091 ft | 356 kts | 214° |
| 2026-04-25 20:13 | 39.98024 | -74.27484 | 27459 ft | 353 kts | 219° |
| 2026-04-25 20:14 | 39.96040 | -74.29315 | 27817 ft | 352 kts | 222° |
| 2026-04-25 20:14 | 39.94088 | -74.31245 | 28156 ft | 353 kts | 223° |
| 2026-04-25 20:14 | 39.92133 | -74.33181 | 28501 ft | 354 kts | 223° |
| 2026-04-25 20:14 | 39.90165 | -74.35111 | 28831 ft | 355 kts | 222° |
| 2026-04-25 20:15 | 39.88174 | -74.37030 | 29186 ft | 356 kts | 222° |
| 2026-04-25 20:15 | 39.86197 | -74.38903 | 29506 ft | 357 kts | 221° |
| 2026-04-25 20:15 | 39.84180 | -74.40802 | 29738 ft | 359 kts | 221° |
| 2026-04-25 20:15 | 39.82152 | -74.42724 | 29993 ft | 360 kts | 222° |
| 2026-04-25 20:16 | 39.80251 | -74.44835 | 30260 ft | 358 kts | 229° |
| 2026-04-25 20:16 | 39.78513 | -74.47149 | 30494 ft | 358 kts | 231° |
| 2026-04-25 20:16 | 39.76814 | -74.49523 | 30705 ft | 359 kts | 231° |
| 2026-04-25 20:16 | 39.75094 | -74.51907 | 30924 ft | 361 kts | 231° |
| 2026-04-25 20:17 | 39.73365 | -74.54282 | 31143 ft | 362 kts | 231° |
| 2026-04-25 20:17 | 39.71606 | -74.56636 | 31336 ft | 364 kts | 230° |
| 2026-04-25 20:17 | 39.69834 | -74.58988 | 31536 ft | 365 kts | 230° |
| 2026-04-25 20:17 | 39.68053 | -74.61343 | 31755 ft | 366 kts | 230° |
| 2026-04-25 20:18 | 39.66287 | -74.63676 | 31919 ft | 368 kts | 230° |
| 2026-04-25 20:18 | 39.64481 | -74.66062 | 31992 ft | 371 kts | 230° |
| 2026-04-25 20:18 | 39.60893 | -74.70790 | 32033 ft | 366 kts | 230° |
| 2026-04-25 20:19 | 39.57324 | -74.75490 | 32046 ft | 365 kts | 230° |
| 2026-04-25 20:19 | 39.53756 | -74.80184 | 32044 ft | 366 kts | 230° |
| 2026-04-25 20:20 | 39.50175 | -74.84887 | 32040 ft | 367 kts | 230° |
| 2026-04-25 20:20 | 39.46595 | -74.89583 | 32033 ft | 369 kts | 230° |
| 2026-04-25 20:21 | 39.42981 | -74.94314 | 32036 ft | 370 kts | 230° |
| 2026-04-25 20:21 | 39.39352 | -74.99055 | 32036 ft | 372 kts | 230° |
| 2026-04-25 20:22 | 39.36912 | -75.02238 | 32029 ft | 372 kts | 230° |
| 2026-04-25 20:22 | 39.32043 | -75.08584 | 32029 ft | 374 kts | 230° |
| 2026-04-25 20:23 | 39.28349 | -75.13305 | 32011 ft | 373 kts | 229° |
| 2026-04-25 20:23 | 39.24655 | -75.17938 | 32018 ft | 372 kts | 229° |
| 2026-04-25 20:24 | 39.20947 | -75.22583 | 32017 ft | 371 kts | 229° |
| 2026-04-25 20:24 | 39.17245 | -75.27208 | 31988 ft | 370 kts | 229° |
| 2026-04-25 20:25 | 39.13548 | -75.31820 | 31987 ft | 369 kts | 229° |
| 2026-04-25 20:25 | 39.09848 | -75.36433 | 31979 ft | 370 kts | 229° |
| 2026-04-25 20:26 | 39.05673 | -75.40369 | 32002 ft | 384 kts | 208° |
| 2026-04-25 20:26 | 39.00676 | -75.42794 | 32003 ft | 387 kts | 206° |
| 2026-04-25 20:27 | 38.95596 | -75.45131 | 31993 ft | 391 kts | 201° |
| 2026-04-25 20:27 | 38.90094 | -75.45939 | 31992 ft | 401 kts | 190° |
| 2026-04-25 20:28 | 38.84525 | -75.46438 | 31975 ft | 400 kts | 192° |
| 2026-04-25 20:28 | 38.78988 | -75.47219 | 31978 ft | 401 kts | 193° |
| 2026-04-25 20:29 | 38.73431 | -75.47979 | 31987 ft | 402 kts | 192° |
| 2026-04-25 20:29 | 38.67859 | -75.48743 | 31981 ft | 403 kts | 193° |
| 2026-04-25 20:30 | 38.62267 | -75.49505 | 31957 ft | 404 kts | 192° |
| 2026-04-25 20:30 | 38.56701 | -75.50261 | 31954 ft | 405 kts | 192° |
| 2026-04-25 20:31 | 38.51090 | -75.51021 | 31950 ft | 406 kts | 192° |
| 2026-04-25 20:31 | 38.45466 | -75.51781 | 31943 ft | 407 kts | 192° |
| 2026-04-25 20:32 | 38.39827 | -75.52544 | 31901 ft | 408 kts | 192° |
| 2026-04-25 20:32 | 38.36988 | -75.52937 | 31751 ft | 411 kts | 194° |
| 2026-04-25 20:32 | 38.34201 | -75.53776 | 31264 ft | 409 kts | 203° |
| 2026-04-25 20:33 | 38.32429 | -75.54505 | 30931 ft | 400 kts | 205° |
| 2026-04-25 20:33 | 38.29848 | -75.55693 | 30323 ft | 388 kts | 208° |
| 2026-04-25 20:33 | 38.27407 | -75.57060 | 29629 ft | 378 kts | 211° |
| 2026-04-25 20:33 | 38.25849 | -75.58021 | 29129 ft | 373 kts | 212° |
| 2026-04-25 20:34 | 38.22764 | -75.59942 | 28147 ft | 365 kts | 211° |
| 2026-04-25 20:34 | 38.20491 | -75.61343 | 27441 ft | 361 kts | 211° |
| 2026-04-25 20:34 | 38.18232 | -75.62691 | 26754 ft | 356 kts | 210° |
| 2026-04-25 20:34 | 38.15997 | -75.64010 | 26084 ft | 352 kts | 210° |
| 2026-04-25 20:35 | 38.13790 | -75.65314 | 25421 ft | 348 kts | 210° |
| 2026-04-25 20:35 | 38.11605 | -75.66598 | 24783 ft | 344 kts | 210° |
| 2026-04-25 20:35 | 38.09445 | -75.67872 | 24158 ft | 341 kts | 210° |
| 2026-04-25 20:35 | 38.07329 | -75.69116 | 23559 ft | 338 kts | 210° |
| 2026-04-25 20:36 | 38.05203 | -75.70365 | 22837 ft | 335 kts | 209° |
| 2026-04-25 20:36 | 38.03093 | -75.71604 | 22126 ft | 333 kts | 209° |
| 2026-04-25 20:36 | 38.00999 | -75.72834 | 21432 ft | 330 kts | 208° |
| 2026-04-25 20:36 | 37.98919 | -75.74055 | 20750 ft | 328 kts | 208° |
| 2026-04-25 20:37 | 37.96851 | -75.75267 | 20092 ft | 327 kts | 208° |
| 2026-04-25 20:37 | 37.94790 | -75.76476 | 19449 ft | 325 kts | 208° |
| 2026-04-25 20:37 | 37.92744 | -75.77674 | 18818 ft | 323 kts | 207° |
| 2026-04-25 20:37 | 37.90704 | -75.78868 | 18190 ft | 322 kts | 207° |
| 2026-04-25 20:38 | 37.88669 | -75.80053 | 17458 ft | 320 kts | 207° |
| 2026-04-25 20:38 | 37.86674 | -75.81215 | 16771 ft | 318 kts | 207° |
| 2026-04-25 20:38 | 37.84667 | -75.82391 | 16085 ft | 317 kts | 208° |
| 2026-04-25 20:38 | 37.82673 | -75.83554 | 15421 ft | 315 kts | 207° |
| 2026-04-25 20:39 | 37.80687 | -75.84713 | 14768 ft | 313 kts | 208° |
| 2026-04-25 20:39 | 37.78718 | -75.85865 | 14118 ft | 311 kts | 208° |
| 2026-04-25 20:39 | 37.76756 | -75.87006 | 13460 ft | 310 kts | 207° |
| 2026-04-25 20:39 | 37.75437 | -75.87775 | 12981 ft | 309 kts | 207° |
| 2026-04-25 20:40 | 37.72862 | -75.89275 | 12073 ft | 306 kts | 207° |
| 2026-04-25 20:40 | 37.70930 | -75.90395 | 11396 ft | 305 kts | 207° |
| 2026-04-25 20:40 | 37.69005 | -75.91515 | 10738 ft | 303 kts | 207° |
| 2026-04-25 20:40 | 37.67116 | -75.92610 | 10346 ft | 293 kts | 207° |
| 2026-04-25 20:41 | 37.65307 | -75.93656 | 10161 ft | 277 kts | 207° |
| 2026-04-25 20:41 | 37.63663 | -75.94690 | 10070 ft | 259 kts | 213° |
| 2026-04-25 20:41 | 37.62142 | -75.95933 | 10029 ft | 263 kts | 216° |
| 2026-04-25 20:41 | 37.60622 | -75.97250 | 10018 ft | 267 kts | 217° |
| 2026-04-25 20:42 | 37.59094 | -75.98606 | 10018 ft | 270 kts | 217° |
| 2026-04-25 20:42 | 37.57560 | -75.99986 | 9968 ft | 273 kts | 218° |
| 2026-04-25 20:42 | 37.56003 | -76.01392 | 9800 ft | 273 kts | 218° |
| 2026-04-25 20:42 | 37.54475 | -76.02771 | 9623 ft | 267 kts | 218° |
| 2026-04-25 20:43 | 37.52982 | -76.04127 | 9429 ft | 263 kts | 218° |
| 2026-04-25 20:43 | 37.51502 | -76.05471 | 9243 ft | 261 kts | 218° |
| 2026-04-25 20:43 | 37.50051 | -76.06785 | 9059 ft | 260 kts | 218° |
| 2026-04-25 20:43 | 37.48634 | -76.08175 | 8879 ft | 258 kts | 221° |
| 2026-04-25 20:44 | 37.47277 | -76.09651 | 8697 ft | 258 kts | 223° |
| 2026-04-25 20:44 | 37.45934 | -76.11145 | 8519 ft | 257 kts | 224° |
| 2026-04-25 20:44 | 37.44602 | -76.12648 | 8344 ft | 256 kts | 223° |
| 2026-04-25 20:44 | 37.43282 | -76.14149 | 8171 ft | 255 kts | 224° |
| 2026-04-25 20:45 | 37.41970 | -76.15659 | 8009 ft | 255 kts | 224° |
| 2026-04-25 20:45 | 37.40664 | -76.17172 | 7835 ft | 256 kts | 224° |
| 2026-04-25 20:45 | 37.39351 | -76.18701 | 7674 ft | 259 kts | 224° |
| 2026-04-25 20:45 | 37.38024 | -76.20248 | 7506 ft | 261 kts | 224° |
| 2026-04-25 20:46 | 37.36690 | -76.21804 | 7322 ft | 262 kts | 224° |
| 2026-04-25 20:46 | 37.35367 | -76.23345 | 7154 ft | 263 kts | 224° |
| 2026-04-25 20:46 | 37.34023 | -76.24913 | 6985 ft | 263 kts | 224° |
| 2026-04-25 20:46 | 37.32681 | -76.26476 | 6842 ft | 263 kts | 223° |
| 2026-04-25 20:47 | 37.31234 | -76.27894 | 6681 ft | 264 kts | 217° |
| 2026-04-25 20:47 | 37.29716 | -76.29192 | 6517 ft | 264 kts | 215° |
| 2026-04-25 20:47 | 37.28183 | -76.30452 | 6410 ft | 263 kts | 214° |
| 2026-04-25 20:47 | 37.26648 | -76.31690 | 6310 ft | 261 kts | 214° |
| 2026-04-25 20:48 | 37.25119 | -76.32915 | 6191 ft | 260 kts | 214° |
| 2026-04-25 20:48 | 37.23594 | -76.34135 | 6139 ft | 260 kts | 214° |
| 2026-04-25 20:48 | 37.22071 | -76.35347 | 6015 ft | 259 kts | 214° |
| 2026-04-25 20:48 | 37.20556 | -76.36556 | 5866 ft | 257 kts | 214° |
| 2026-04-25 20:49 | 37.19064 | -76.37744 | 5726 ft | 256 kts | 214° |
| 2026-04-25 20:49 | 37.17562 | -76.38942 | 5570 ft | 255 kts | 214° |
| 2026-04-25 20:49 | 37.16068 | -76.40136 | 5403 ft | 254 kts | 214° |
| 2026-04-25 20:49 | 37.14591 | -76.41332 | 5246 ft | 252 kts | 214° |
| 2026-04-25 20:50 | 37.13123 | -76.42524 | 5104 ft | 250 kts | 214° |
| 2026-04-25 20:50 | 37.11672 | -76.43706 | 5029 ft | 246 kts | 214° |
| 2026-04-25 20:50 | 37.10249 | -76.44860 | 4984 ft | 241 kts | 214° |
| 2026-04-25 20:50 | 37.08853 | -76.45996 | 4975 ft | 239 kts | 214° |
| 2026-04-25 20:51 | 37.07458 | -76.47133 | 4965 ft | 240 kts | 214° |
| 2026-04-25 20:51 | 37.06056 | -76.48277 | 4973 ft | 240 kts | 214° |
| 2026-04-25 20:51 | 37.04656 | -76.49419 | 4971 ft | 241 kts | 214° |
| 2026-04-25 20:51 | 37.03213 | -76.50490 | 4978 ft | 241 kts | 210° |
| 2026-04-25 20:52 | 37.01727 | -76.51480 | 4973 ft | 242 kts | 207° |
| 2026-04-25 20:52 | 37.00722 | -76.52088 | 4977 ft | 242 kts | 206° |
| 2026-04-25 20:52 | 36.98689 | -76.53261 | 4970 ft | 243 kts | 205° |
| 2026-04-25 20:52 | 36.97149 | -76.54127 | 4975 ft | 243 kts | 205° |
| 2026-04-25 20:53 | 36.95605 | -76.54990 | 4981 ft | 243 kts | 206° |
| 2026-04-25 20:53 | 36.94057 | -76.55859 | 4911 ft | 246 kts | 205° |
| 2026-04-25 20:53 | 36.92484 | -76.56768 | 4764 ft | 252 kts | 205° |
| 2026-04-25 20:53 | 36.90873 | -76.57698 | 4675 ft | 258 kts | 205° |
| 2026-04-25 20:54 | 36.89227 | -76.58644 | 4555 ft | 260 kts | 205° |
| 2026-04-25 20:54 | 36.87624 | -76.59552 | 4385 ft | 247 kts | 201° |
| 2026-04-25 20:54 | 36.85965 | -76.59760 | 4182 ft | 239 kts | 169° |
| 2026-04-25 20:54 | 36.84546 | -76.58831 | 4005 ft | 236 kts | 138° |
| 2026-04-25 20:55 | 36.83604 | -76.57176 | 3853 ft | 230 kts | 124° |
| 2026-04-25 20:55 | 36.82796 | -76.55483 | 3723 ft | 223 kts | 122° |
| 2026-04-25 20:55 | 36.82048 | -76.53870 | 3683 ft | 212 kts | 122° |
| 2026-04-25 20:55 | 36.81316 | -76.52261 | 3565 ft | 214 kts | 121° |
| 2026-04-25 20:56 | 36.80596 | -76.50613 | 3428 ft | 217 kts | 121° |
| 2026-04-25 20:56 | 36.79890 | -76.48955 | 3281 ft | 220 kts | 121° |
| 2026-04-25 20:56 | 36.79203 | -76.47310 | 3139 ft | 207 kts | 121° |
| 2026-04-25 20:56 | 36.78567 | -76.45745 | 2978 ft | 198 kts | 121° |
| 2026-04-25 20:57 | 36.77951 | -76.44230 | 2840 ft | 193 kts | 121° |
| 2026-04-25 20:57 | 36.77341 | -76.42769 | 2708 ft | 188 kts | 121° |
| 2026-04-25 20:57 | 36.76739 | -76.41341 | 2585 ft | 184 kts | 120° |
| 2026-04-25 20:57 | 36.76151 | -76.39939 | 2465 ft | 181 kts | 121° |
| 2026-04-25 20:58 | 36.75573 | -76.38563 | 2334 ft | 178 kts | 121° |
| 2026-04-25 20:58 | 36.74994 | -76.37212 | 2214 ft | 174 kts | 121° |
| 2026-04-25 20:58 | 36.74421 | -76.35899 | 2120 ft | 170 kts | 121° |
| 2026-04-25 20:58 | 36.74117 | -76.34517 | 2046 ft | 169 kts | 88° |
| 2026-04-25 20:59 | 36.74670 | -76.33264 | 2032 ft | 168 kts | 43° |
| 2026-04-25 20:59 | 36.75615 | -76.32489 | 2057 ft | 159 kts | 35° |
| 2026-04-25 20:59 | 36.76561 | -76.31800 | 2005 ft | 156 kts | 32° |
| 2026-04-25 20:59 | 36.77481 | -76.31148 | 1916 ft | 154 kts | 33° |
| 2026-04-25 21:00 | 36.78403 | -76.30510 | 1885 ft | 149 kts | 34° |
| 2026-04-25 21:00 | 36.78700 | -76.30275 | 1856 ft | 151 kts | 35° |
| 2026-04-25 21:00 | 36.81072 | -76.28203 | 1687 ft | 162 kts | 40° |
| 2026-04-25 21:01 | 36.81958 | -76.27316 | 1619 ft | 162 kts | 43° |
| 2026-04-25 21:01 | 36.82802 | -76.26496 | 1514 ft | 149 kts | 41° |
| 2026-04-25 21:01 | 36.83587 | -76.25723 | 1286 ft | 140 kts | 43° |
| 2026-04-25 21:01 | 36.84316 | -76.24989 | 1123 ft | 130 kts | 43° |
| 2026-04-25 21:02 | 36.85037 | -76.24248 | 954 ft | 136 kts | 41° |
| 2026-04-25 21:02 | 36.85773 | -76.23545 | 807 ft | 131 kts | 42° |
| 2026-04-25 21:02 | 36.86487 | -76.22874 | 662 ft | 128 kts | 39° |
| 2026-04-25 21:02 | 36.87172 | -76.22176 | 468 ft | 126 kts | 42° |
| 2026-04-25 21:03 | 36.87886 | -76.21509 | 258 ft | 131 kts | 37° |
| 2026-04-25 21:03 | 36.88602 | -76.20808 | 87 ft | 126 kts | 36° |
| 2026-04-25 21:03 | 36.89234 | -76.20212 | 7 ft | 104 kts | 36° |
| 2026-04-25 21:03 | 36.89569 | -76.19887 | 6 ft | 32 kts | 33° |
| 2026-04-25 21:04 | 36.89724 | -76.19858 | 2 ft | 16 kts | 345° |
| 2026-04-25 21:04 | 36.89748 | -76.19875 | 2 ft | 0 kts | 307° |
| 2026-04-25 21:05 | 36.89766 | -76.19891 | 1 ft | 4 kts | 350° |
| 2026-04-25 21:05 | 36.89789 | -76.19884 | 1 ft | 5 kts | 31° |
| 2026-04-25 21:06 | 36.89817 | -76.19858 | 1 ft | 0 kts | 37° |
| 2026-04-25 21:06 | 36.89831 | -76.19845 | 1 ft | 8 kts | 37° |
| 2026-04-25 21:06 | 36.89905 | -76.19785 | 1 ft | 14 kts | 18° |
| 2026-04-25 21:06 | 36.89942 | -76.19801 | 1 ft | 8 kts | 307° |
| 2026-04-25 21:07 | 36.89980 | -76.19879 | 1 ft | 1 kts | 295° |
| 2026-04-25 21:07 | 36.89982 | -76.19883 | 1 ft | 0 kts | 295° |
| 2026-04-25 21:07 | 36.89983 | -76.19899 | 1 ft | 7 kts | 264° |
| 2026-04-25 21:08 | 36.89915 | -76.19923 | 1 ft | 18 kts | 146° |
| 2026-04-25 21:08 | 36.89871 | -76.19869 | 1 ft | 3 kts | 140° |
| 2026-04-25 21:08 | 36.89828 | -76.19855 | 1 ft | 10 kts | 196° |
| 2026-04-25 21:08 | 36.89750 | -76.19926 | 1 ft | 17 kts | 230° |
| 2026-04-25 21:09 | 36.89805 | -76.20200 | 1 ft | 11 kts | 267° |
| 2026-04-25 21:09 | 36.89769 | -76.20262 | 1 ft | 3 kts | 218° |
| 2026-04-25 21:09 | 36.89761 | -76.20269 | 1 ft | 0 kts | 218° |